sensor_id;sensor_type;location;lat;lon;timestamp;pressure;altitude;pressure_sealevel;temperature;humidity
51359;BME280;37448;51.588;7.248;2023-07-02T00:01:26;100060.22;;;17.02;79.60
51359;BME280;37448;51.588;7.248;2023-07-02T00:03:26;100063.63;;;17.04;80.97
51359;BME280;37448;51.588;7.248;2023-07-02T00:05:26;100059.19;;;17.04;80.66
51359;BME280;37448;51.588;7.248;2023-07-02T00:07:27;100060.22;;;17.02;80.70
51359;BME280;37448;51.588;7.248;2023-07-02T00:09:27;100062.69;;;17.05;81.25
51359;BME280;37448;51.588;7.248;2023-07-02T00:11:27;100057.31;;;17.06;80.90
51359;BME280;37448;51.588;7.248;2023-07-02T00:13:28;100056.47;;;17.06;81.46
51359;BME280;37448;51.588;7.248;2023-07-02T00:15:28;100056.47;;;17.06;81.56
51359;BME280;37448;51.588;7.248;2023-07-02T00:17:29;100054.78;;;17.05;81.24
51359;BME280;37448;51.588;7.248;2023-07-02T00:19:29;100059.38;;;17.01;81.08
51359;BME280;37448;51.588;7.248;2023-07-02T00:21:29;100057.59;;;17.02;81.15
51359;BME280;37448;51.588;7.248;2023-07-02T00:23:32;100056.66;;;17.03;81.37
51359;BME280;37448;51.588;7.248;2023-07-02T00:25:33;100054.97;;;17.02;81.42
51359;BME280;37448;51.588;7.248;2023-07-02T00:27:33;100058.66;;;16.98;81.58
51359;BME280;37448;51.588;7.248;2023-07-02T00:29:34;100062.06;;;17.00;81.73
51359;BME280;37448;51.588;7.248;2023-07-02T00:31:34;100056.31;;;16.93;80.62
51359;BME280;37448;51.588;7.248;2023-07-02T00:33:35;100057.88;;;16.96;81.09
51359;BME280;37448;51.588;7.248;2023-07-02T00:35:36;100052.53;;;16.97;82.11
51359;BME280;37448;51.588;7.248;2023-07-02T00:37:37;100061.41;;;16.96;81.89
51359;BME280;37448;51.588;7.248;2023-07-02T00:39:37;100058.84;;;16.94;80.87
51359;BME280;37448;51.588;7.248;2023-07-02T00:41:38;100055.44;;;16.92;80.89
51359;BME280;37448;51.588;7.248;2023-07-02T00:43:39;100060.53;;;16.96;81.64
51359;BME280;37448;51.588;7.248;2023-07-02T00:45:44;100060.38;;;16.99;81.38
51359;BME280;37448;51.588;7.248;2023-07-02T00:47:45;100059.78;;;16.93;80.86
51359;BME280;37448;51.588;7.248;2023-07-02T00:49:45;100057.13;;;16.93;80.73
51359;BME280;37448;51.588;7.248;2023-07-02T00:51:46;100055.44;;;16.92;80.70
51359;BME280;37448;51.588;7.248;2023-07-02T00:53:48;100061.56;;;16.93;80.92
51359;BME280;37448;51.588;7.248;2023-07-02T00:55:48;100052.63;;;16.96;81.35
51359;BME280;37448;51.588;7.248;2023-07-02T00:57:49;100051.84;;;16.93;80.68
51359;BME280;37448;51.588;7.248;2023-07-02T00:59:50;100050.16;;;16.92;80.66
51359;BME280;37448;51.588;7.248;2023-07-02T01:01:53;100049.59;;;16.87;80.17
51359;BME280;37448;51.588;7.248;2023-07-02T01:04:02;100049.41;;;16.90;81.24
51359;BME280;37448;51.588;7.248;2023-07-02T01:06:03;100040.81;;;16.87;80.96
51359;BME280;37448;51.588;7.248;2023-07-02T01:08:04;100038.28;;;16.85;80.34
51359;BME280;37448;51.588;7.248;2023-07-02T01:10:06;100035.81;;;16.82;80.28
51359;BME280;37448;51.588;7.248;2023-07-02T01:12:08;100022.81;;;16.79;80.10
51359;BME280;37448;51.588;7.248;2023-07-02T01:14:26;100013.28;;;16.76;79.58
51359;BME280;37448;51.588;7.248;2023-07-02T01:16:30;100008.38;;;16.70;79.33
51359;BME280;37448;51.588;7.248;2023-07-02T01:18:33;99990.56;;;16.74;80.09
51359;BME280;37448;51.588;7.248;2023-07-02T01:20:34;99994.91;;;16.75;80.50
51359;BME280;37448;51.588;7.248;2023-07-02T01:22:36;100002.59;;;16.63;80.09
51359;BME280;37448;51.588;7.248;2023-07-02T01:24:39;100015.53;;;16.52;79.91
51359;BME280;37448;51.588;7.248;2023-07-02T01:26:40;100012.13;;;16.50;80.19
51359;BME280;37448;51.588;7.248;2023-07-02T01:28:41;100019.63;;;16.42;80.11
51359;BME280;37448;51.588;7.248;2023-07-02T01:30:41;100010.09;;;16.39;80.88
51359;BME280;37448;51.588;7.248;2023-07-02T01:32:43;100013.75;;;16.36;80.67
51359;BME280;37448;51.588;7.248;2023-07-02T01:34:44;100015.53;;;16.36;81.68
51359;BME280;37448;51.588;7.248;2023-07-02T01:36:49;100017.81;;;16.26;80.96
51359;BME280;37448;51.588;7.248;2023-07-02T01:38:50;100044.16;;;16.26;81.67
51359;BME280;37448;51.588;7.248;2023-07-02T01:40:51;100049.59;;;16.23;80.83
51359;BME280;37448;51.588;7.248;2023-07-02T01:42:52;100050.38;;;16.25;80.78
51359;BME280;37448;51.588;7.248;2023-07-02T01:44:54;100041.38;;;16.29;81.37
51359;BME280;37448;51.588;7.248;2023-07-02T01:46:54;100049.88;;;16.34;81.84
51359;BME280;37448;51.588;7.248;2023-07-02T01:48:57;100056.84;;;16.35;81.47
51359;BME280;37448;51.588;7.248;2023-07-02T01:50:57;100048.84;;;16.37;79.85
51359;BME280;37448;51.588;7.248;2023-07-02T01:52:57;100054.81;;;16.41;79.37
51359;BME280;37448;51.588;7.248;2023-07-02T01:54:59;100052.94;;;16.43;80.07
51359;BME280;37448;51.588;7.248;2023-07-02T01:56:59;100049.53;;;16.41;79.35
51359;BME280;37448;51.588;7.248;2023-07-02T01:59:00;100057.38;;;16.42;79.93
51359;BME280;37448;51.588;7.248;2023-07-02T02:01:01;100059.13;;;16.42;79.43
51359;BME280;37448;51.588;7.248;2023-07-02T02:03:01;100068.56;;;16.46;80.12
51359;BME280;37448;51.588;7.248;2023-07-02T02:05:02;100061.44;;;16.48;80.38
51359;BME280;37448;51.588;7.248;2023-07-02T02:07:03;100061.44;;;16.48;80.20
51359;BME280;37448;51.588;7.248;2023-07-02T02:09:03;100059.72;;;16.47;79.35
51359;BME280;37448;51.588;7.248;2023-07-02T02:11:04;100059.91;;;16.44;79.41
51359;BME280;37448;51.588;7.248;2023-07-02T02:13:05;100064.22;;;16.45;79.69
51359;BME280;37448;51.588;7.248;2023-07-02T02:15:05;100072.13;;;16.45;80.12
51359;BME280;37448;51.588;7.248;2023-07-02T02:17:06;100067.97;;;16.41;78.86
51359;BME280;37448;51.588;7.248;2023-07-02T02:19:07;100070.63;;;16.41;79.37
51359;BME280;37448;51.588;7.248;2023-07-02T02:21:07;100070.63;;;16.41;79.36
51359;BME280;37448;51.588;7.248;2023-07-02T02:23:07;100073.84;;;16.30;78.29
51359;BME280;37448;51.588;7.248;2023-07-02T02:25:08;100070.97;;;16.34;79.52
51359;BME280;37448;51.588;7.248;2023-07-02T02:27:09;100072.72;;;16.34;79.63
51359;BME280;37448;51.588;7.248;2023-07-02T02:29:09;100078.88;;;16.34;79.03
51359;BME280;37448;51.588;7.248;2023-07-02T02:31:10;100069.34;;;16.32;79.57
51359;BME280;37448;51.588;7.248;2023-07-02T02:33:11;100069.44;;;16.30;78.80
51359;BME280;37448;51.588;7.248;2023-07-02T02:35:11;100071.19;;;16.30;77.96
51359;BME280;37448;51.588;7.248;2023-07-02T02:37:13;100076.56;;;16.28;78.35
51359;BME280;37448;51.588;7.248;2023-07-02T02:39:14;100070.97;;;16.34;78.40
51359;BME280;37448;51.588;7.248;2023-07-02T02:41:14;100077.16;;;16.33;78.62
51359;BME280;37448;51.588;7.248;2023-07-02T02:43:20;100077.94;;;16.35;78.34
51359;BME280;37448;51.588;7.248;2023-07-02T02:45:21;100069.25;;;16.33;77.65
51359;BME280;37448;51.588;7.248;2023-07-02T02:47:21;100070.09;;;16.34;78.46
51359;BME280;37448;51.588;7.248;2023-07-02T02:49:22;100072.81;;;16.32;77.46
51359;BME280;37448;51.588;7.248;2023-07-02T02:51:23;100071.97;;;16.32;77.90
51359;BME280;37448;51.588;7.248;2023-07-02T02:53:23;100064.81;;;16.34;77.84
51359;BME280;37448;51.588;7.248;2023-07-02T02:55:24;100070.97;;;16.34;78.05
51359;BME280;37448;51.588;7.248;2023-07-02T02:57:24;100065.59;;;16.36;77.77
51359;BME280;37448;51.588;7.248;2023-07-02T02:59:25;100065.69;;;16.34;77.91
51359;BME280;37448;51.588;7.248;2023-07-02T03:01:25;100071.63;;;16.22;75.97
51359;BME280;37448;51.588;7.248;2023-07-02T03:03:30;100065.16;;;16.28;76.42
51359;BME280;37448;51.588;7.248;2023-07-02T03:05:30;100074.69;;;16.30;77.63
51359;BME280;37448;51.588;7.248;2023-07-02T03:07:31;100065.16;;;16.28;76.57
51359;BME280;37448;51.588;7.248;2023-07-02T03:09:32;100075.28;;;16.35;78.40
51359;BME280;37448;51.588;7.248;2023-07-02T03:11:32;100081.41;;;16.36;78.18
51359;BME280;37448;51.588;7.248;2023-07-02T03:13:33;100087.88;;;16.30;76.36
51359;BME280;37448;51.588;7.248;2023-07-02T03:15:33;100093.91;;;16.32;78.35
51359;BME280;37448;51.588;7.248;2023-07-02T03:17:34;100090.66;;;16.27;77.07
51359;BME280;37448;51.588;7.248;2023-07-02T03:19:34;100096.78;;;16.28;76.93
51359;BME280;37448;51.588;7.248;2023-07-02T03:21:35;100097.66;;;16.28;76.24
51359;BME280;37448;51.588;7.248;2023-07-02T03:23:35;100098.31;;;16.32;77.12
51359;BME280;37448;51.588;7.248;2023-07-02T03:25:35;100104.75;;;16.26;76.04
51359;BME280;37448;51.588;7.248;2023-07-02T03:27:36;100110.88;;;16.27;77.11
51359;BME280;37448;51.588;7.248;2023-07-02T03:29:36;100104.63;;;16.29;77.21
51359;BME280;37448;51.588;7.248;2023-07-02T03:31:38;100108.09;;;16.30;77.64
51359;BME280;37448;51.588;7.248;2023-07-02T03:33:38;100114.47;;;16.26;77.34
51359;BME280;37448;51.588;7.248;2023-07-02T03:35:39;100114.34;;;16.27;77.42
51359;BME280;37448;51.588;7.248;2023-07-02T03:37:39;100111.88;;;16.24;77.46
51359;BME280;37448;51.588;7.248;2023-07-02T03:39:43;100120.72;;;16.23;77.72
51359;BME280;37448;51.588;7.248;2023-07-02T03:41:44;100117.50;;;16.18;75.67
51359;BME280;37448;51.588;7.248;2023-07-02T03:43:44;100122.69;;;16.19;76.86
51359;BME280;37448;51.588;7.248;2023-07-02T03:45:45;100118.19;;;16.21;76.55
51359;BME280;37448;51.588;7.248;2023-07-02T03:47:45;100123.53;;;16.20;75.47
51359;BME280;37448;51.588;7.248;2023-07-02T03:49:46;100124.63;;;16.16;75.22
51359;BME280;37448;51.588;7.248;2023-07-02T03:51:47;100125.56;;;16.15;75.40
51359;BME280;37448;51.588;7.248;2023-07-02T03:53:47;100123.00;;;16.13;75.75
51359;BME280;37448;51.588;7.248;2023-07-02T03:55:48;100126.56;;;16.12;74.93
51359;BME280;37448;51.588;7.248;2023-07-02T03:57:48;100130.13;;;16.11;75.45
51359;BME280;37448;51.588;7.248;2023-07-02T03:59:49;100138.13;;;16.10;75.67
51359;BME280;37448;51.588;7.248;2023-07-02T04:01:49;100138.13;;;16.10;76.10
51359;BME280;37448;51.588;7.248;2023-07-02T04:03:52;100135.78;;;16.03;74.88
51359;BME280;37448;51.588;7.248;2023-07-02T04:05:53;100141.75;;;16.07;75.07
51359;BME280;37448;51.588;7.248;2023-07-02T04:07:53;100144.63;;;16.02;74.33
51359;BME280;37448;51.588;7.248;2023-07-02T04:09:53;100142.53;;;16.09;75.48
51359;BME280;37448;51.588;7.248;2023-07-02T04:11:54;100142.47;;;16.11;74.87
51359;BME280;37448;51.588;7.248;2023-07-02T04:13:54;100144.06;;;16.13;75.83
51359;BME280;37448;51.588;7.248;2023-07-02T04:15:54;100155.53;;;16.12;75.12
51359;BME280;37448;51.588;7.248;2023-07-02T04:17:55;100155.47;;;16.14;76.21
51359;BME280;37448;51.588;7.248;2023-07-02T04:19:55;100163.19;;;16.17;76.56
51359;BME280;37448;51.588;7.248;2023-07-02T04:21:56;100160.81;;;16.12;74.10
51359;BME280;37448;51.588;7.248;2023-07-02T04:23:56;100160.81;;;16.12;74.70
51359;BME280;37448;51.588;7.248;2023-07-02T04:25:57;100165.91;;;16.15;76.17
51359;BME280;37448;51.588;7.248;2023-07-02T04:27:57;100171.28;;;16.14;75.18
51359;BME280;37448;51.588;7.248;2023-07-02T04:29:58;100170.34;;;16.15;74.41
51359;BME280;37448;51.588;7.248;2023-07-02T04:31:59;100178.16;;;16.16;74.67
51359;BME280;37448;51.588;7.248;2023-07-02T04:33:59;100168.47;;;16.17;75.30
51359;BME280;37448;51.588;7.248;2023-07-02T04:35:59;100174.66;;;16.16;75.66
51359;BME280;37448;51.588;7.248;2023-07-02T04:38:00;100172.63;;;16.21;75.80
51359;BME280;37448;51.588;7.248;2023-07-02T04:40:01;100175.53;;;16.16;74.80
51359;BME280;37448;51.588;7.248;2023-07-02T04:42:04;100179.53;;;16.24;76.07
51359;BME280;37448;51.588;7.248;2023-07-02T04:44:04;100179.44;;;16.25;76.10
51359;BME280;37448;51.588;7.248;2023-07-02T04:46:05;100182.94;;;16.26;76.13
51359;BME280;37448;51.588;7.248;2023-07-02T04:48:07;100192.47;;;16.28;76.69
51359;BME280;37448;51.588;7.248;2023-07-02T04:50:08;100189.53;;;16.34;76.68
51359;BME280;37448;51.588;7.248;2023-07-02T04:52:09;100187.81;;;16.33;76.44
51359;BME280;37448;51.588;7.248;2023-07-02T04:54:09;100192.75;;;16.40;76.39
51359;BME280;37448;51.588;7.248;2023-07-02T04:56:09;100198.97;;;16.39;75.83
51359;BME280;37448;51.588;7.248;2023-07-02T04:58:10;100195.38;;;16.40;76.49
51359;BME280;37448;51.588;7.248;2023-07-02T05:00:11;100190.66;;;16.46;76.63
51359;BME280;37448;51.588;7.248;2023-07-02T05:02:12;100184.50;;;16.46;75.61
51359;BME280;37448;51.588;7.248;2023-07-02T05:04:13;100191.19;;;16.53;76.34
51359;BME280;37448;51.588;7.248;2023-07-02T05:06:13;100190.66;;;16.62;76.62
51359;BME280;37448;51.588;7.248;2023-07-02T05:08:14;100193.84;;;16.69;76.10
51359;BME280;37448;51.588;7.248;2023-07-02T05:10:14;100189.22;;;16.73;74.90
51359;BME280;37448;51.588;7.248;2023-07-02T05:12:15;100190.94;;;16.74;75.32
51359;BME280;37448;51.588;7.248;2023-07-02T05:14:15;100194.03;;;16.82;76.05
51359;BME280;37448;51.588;7.248;2023-07-02T05:16:16;100192.91;;;16.86;75.88
51359;BME280;37448;51.588;7.248;2023-07-02T05:18:17;100187.47;;;16.89;75.13
51359;BME280;37448;51.588;7.248;2023-07-02T05:20:17;100190.44;;;16.83;74.70
51359;BME280;37448;51.588;7.248;2023-07-02T05:22:18;100194.25;;;16.77;74.24
51359;BME280;37448;51.588;7.248;2023-07-02T05:24:19;100196.72;;;16.81;75.73
51359;BME280;37448;51.588;7.248;2023-07-02T05:26:19;100196.47;;;16.85;75.78
51359;BME280;37448;51.588;7.248;2023-07-02T05:28:20;100202.94;;;16.79;74.74
51359;BME280;37448;51.588;7.248;2023-07-02T05:30:20;100206.50;;;16.78;75.83
51359;BME280;37448;51.588;7.248;2023-07-02T05:32:20;100207.03;;;16.85;76.64
51359;BME280;37448;51.588;7.248;2023-07-02T05:34:21;100208.91;;;16.83;75.40
51359;BME280;37448;51.588;7.248;2023-07-02T05:36:22;100216.53;;;16.88;75.87
51359;BME280;37448;51.588;7.248;2023-07-02T05:38:22;100207.09;;;16.84;74.86
51359;BME280;37448;51.588;7.248;2023-07-02T05:40:22;100209.41;;;16.90;75.72
51359;BME280;37448;51.588;7.248;2023-07-02T05:42:23;100209.78;;;17.00;76.11
51359;BME280;37448;51.588;7.248;2023-07-02T05:44:23;100218.31;;;17.05;74.43
51359;BME280;37448;51.588;7.248;2023-07-02T05:46:24;100220.00;;;17.06;73.41
51359;BME280;37448;51.588;7.248;2023-07-02T05:48:24;100218.66;;;17.15;73.38
51359;BME280;37448;51.588;7.248;2023-07-02T05:50:25;100214.03;;;17.18;72.96
51359;BME280;37448;51.588;7.248;2023-07-02T05:52:25;100216.06;;;17.29;74.57
51359;BME280;37448;51.588;7.248;2023-07-02T05:54:25;100221.59;;;17.41;72.81
51359;BME280;37448;51.588;7.248;2023-07-02T05:56:26;100225.91;;;17.58;74.30
51359;BME280;37448;51.588;7.248;2023-07-02T05:58:26;100222.16;;;17.62;70.58
51359;BME280;37448;51.588;7.248;2023-07-02T06:00:27;100227.44;;;17.62;69.33
51359;BME280;37448;51.588;7.248;2023-07-02T06:02:27;100232.16;;;17.71;71.38
51359;BME280;37448;51.588;7.248;2023-07-02T06:04:27;100233.03;;;17.72;70.57
51359;BME280;37448;51.588;7.248;2023-07-02T06:06:28;100234.78;;;17.57;66.89
51359;BME280;37448;51.588;7.248;2023-07-02T06:08:28;100230.31;;;17.73;70.07
51359;BME280;37448;51.588;7.248;2023-07-02T06:10:28;100234.22;;;17.66;68.18
51359;BME280;37448;51.588;7.248;2023-07-02T06:12:29;100241.22;;;17.67;67.04
51359;BME280;37448;51.588;7.248;2023-07-02T06:14:29;100236.38;;;17.90;69.06
51359;BME280;37448;51.588;7.248;2023-07-02T06:16:30;100241.66;;;17.90;66.41
51359;BME280;37448;51.588;7.248;2023-07-02T06:18:30;100241.38;;;18.11;66.10
51359;BME280;37448;51.588;7.248;2023-07-02T06:20:31;100245.81;;;18.25;67.85
51359;BME280;37448;51.588;7.248;2023-07-02T06:22:31;100248.75;;;18.20;63.28
51359;BME280;37448;51.588;7.248;2023-07-02T06:24:32;100241.31;;;18.41;65.95
51359;BME280;37448;51.588;7.248;2023-07-02T06:26:32;100241.63;;;18.51;61.64
51359;BME280;37448;51.588;7.248;2023-07-02T06:28:32;100256.13;;;18.87;63.83
51359;BME280;37448;51.588;7.248;2023-07-02T06:30:33;100267.00;;;19.12;63.04
51359;BME280;37448;51.588;7.248;2023-07-02T06:32:33;100251.41;;;19.21;60.83
51359;BME280;37448;51.588;7.248;2023-07-02T06:34:34;100253.63;;;19.42;58.18
51359;BME280;37448;51.588;7.248;2023-07-02T06:36:34;100258.81;;;19.71;58.09
51359;BME280;37448;51.588;7.248;2023-07-02T06:38:35;100255.84;;;19.89;57.40
51359;BME280;37448;51.588;7.248;2023-07-02T06:40:35;100260.63;;;20.24;55.57
51359;BME280;37448;51.588;7.248;2023-07-02T06:42:35;100257.31;;;20.59;58.64
51359;BME280;37448;51.588;7.248;2023-07-02T06:44:36;100262.75;;;20.71;60.30
51359;BME280;37448;51.588;7.248;2023-07-02T06:46:36;100264.00;;;20.52;53.23
51359;BME280;37448;51.588;7.248;2023-07-02T06:48:37;100269.31;;;20.65;51.29
51359;BME280;37448;51.588;7.248;2023-07-02T06:50:37;100264.44;;;20.72;52.86
51359;BME280;37448;51.588;7.248;2023-07-02T06:52:37;100268.25;;;20.93;54.27
51359;BME280;37448;51.588;7.248;2023-07-02T06:54:38;100260.59;;;20.76;49.96
51359;BME280;37448;51.588;7.248;2023-07-02T06:56:38;100269.06;;;21.07;49.96
51359;BME280;37448;51.588;7.248;2023-07-02T06:58:42;100277.97;;;21.06;49.17
51359;BME280;37448;51.588;7.248;2023-07-02T07:00:43;100269.06;;;21.07;50.86
51359;BME280;37448;51.588;7.248;2023-07-02T07:02:44;100273.25;;;20.85;49.42
51359;BME280;37448;51.588;7.248;2023-07-02T07:04:44;100268.16;;;20.82;50.00
51359;BME280;37448;51.588;7.248;2023-07-02T07:06:44;100265.28;;;20.85;49.57
51359;BME280;37448;51.588;7.248;2023-07-02T07:08:45;100279.16;;;21.02;48.19
51359;BME280;37448;51.588;7.248;2023-07-02T07:10:45;100279.28;;;20.61;47.83
51359;BME280;37448;51.588;7.248;2023-07-02T07:12:46;100282.25;;;20.70;50.77
51359;BME280;37448;51.588;7.248;2023-07-02T07:14:46;100288.53;;;20.43;49.09
51359;BME280;37448;51.588;7.248;2023-07-02T07:16:46;100282.78;;;20.36;49.54
51359;BME280;37448;51.588;7.248;2023-07-02T07:18:47;100288.56;;;20.02;49.16
51359;BME280;37448;51.588;7.248;2023-07-02T07:20:47;100296.06;;;20.49;51.03
51359;BME280;37448;51.588;7.248;2023-07-02T07:22:48;100284.81;;;20.58;48.50
51359;BME280;37448;51.588;7.248;2023-07-02T07:24:48;100287.06;;;20.90;52.06
51359;BME280;37448;51.588;7.248;2023-07-02T07:26:49;100278.34;;;21.26;50.86
51359;BME280;37448;51.588;7.248;2023-07-02T07:28:49;100279.00;;;21.54;49.82
51359;BME280;37448;51.588;7.248;2023-07-02T07:30:49;100285.69;;;21.35;46.71
51359;BME280;37448;51.588;7.248;2023-07-02T07:32:51;100278.31;;;21.39;46.90
51359;BME280;37448;51.588;7.248;2023-07-02T07:34:51;100289.34;;;21.45;46.61
51359;BME280;37448;51.588;7.248;2023-07-02T07:36:52;100294.66;;;21.45;46.39
51359;BME280;37448;51.588;7.248;2023-07-02T07:38:52;100290.09;;;21.10;43.71
51359;BME280;37448;51.588;7.248;2023-07-02T07:40:53;100285.53;;;21.12;43.96
51359;BME280;37448;51.588;7.248;2023-07-02T07:42:53;100295.81;;;21.04;44.20
51359;BME280;37448;51.588;7.248;2023-07-02T07:44:53;100293.19;;;20.78;43.74
51359;BME280;37448;51.588;7.248;2023-07-02T07:46:57;100293.19;;;20.78;44.27
51359;BME280;37448;51.588;7.248;2023-07-02T07:48:57;100298.28;;;20.94;45.88
51359;BME280;37448;51.588;7.248;2023-07-02T07:50:57;100294.75;;;21.19;45.25
51359;BME280;37448;51.588;7.248;2023-07-02T07:52:58;100292.28;;;21.54;45.19
51359;BME280;37448;51.588;7.248;2023-07-02T07:54:59;100305.56;;;21.54;43.99
51359;BME280;37448;51.588;7.248;2023-07-02T07:56:59;100295.28;;;21.49;41.49
51359;BME280;37448;51.588;7.248;2023-07-02T07:58:59;100303.69;;;21.80;43.02
51359;BME280;37448;51.588;7.248;2023-07-02T08:01:00;100302.66;;;21.57;42.10
51359;BME280;37448;51.588;7.248;2023-07-02T08:03:00;100307.63;;;21.74;42.51
51359;BME280;37448;51.588;7.248;2023-07-02T08:05:03;100325.19;;;22.13;42.16
51359;BME280;37448;51.588;7.248;2023-07-02T08:07:04;100321.00;;;22.33;39.36
51359;BME280;37448;51.588;7.248;2023-07-02T08:09:05;100312.88;;;22.12;40.43
51359;BME280;37448;51.588;7.248;2023-07-02T08:11:05;100321.47;;;21.91;40.36
51359;BME280;37448;51.588;7.248;2023-07-02T08:13:05;100322.41;;;22.14;40.41
51359;BME280;37448;51.588;7.248;2023-07-02T08:15:08;100326.72;;;22.40;39.51
51359;BME280;37448;51.588;7.248;2023-07-02T08:17:08;100325.94;;;22.26;40.98
51359;BME280;37448;51.588;7.248;2023-07-02T08:19:09;100316.31;;;22.36;41.14
51359;BME280;37448;51.588;7.248;2023-07-02T08:21:09;100320.72;;;22.49;40.48
51359;BME280;37448;51.588;7.248;2023-07-02T08:23:09;100322.63;;;22.47;39.07
51359;BME280;37448;51.588;7.248;2023-07-02T08:25:10;100332.13;;;22.27;39.88
51359;BME280;37448;51.588;7.248;2023-07-02T08:27:10;100326.09;;;22.00;38.87
51359;BME280;37448;51.588;7.248;2023-07-02T08:29:13;100335.53;;;22.04;39.68
51359;BME280;37448;51.588;7.248;2023-07-02T08:31:14;100354.00;;;22.30;40.87
51359;BME280;37448;51.588;7.248;2023-07-02T08:33:14;100332.03;;;22.40;40.99
51359;BME280;37448;51.588;7.248;2023-07-02T08:35:15;100331.63;;;22.69;40.20
51359;BME280;37448;51.588;7.248;2023-07-02T08:37:15;100335.28;;;22.90;40.68
51359;BME280;37448;51.588;7.248;2023-07-02T08:39:16;100343.16;;;23.26;38.88
51359;BME280;37448;51.588;7.248;2023-07-02T08:41:16;100328.25;;;23.12;37.88
51359;BME280;37448;51.588;7.248;2023-07-02T08:43:17;100338.66;;;22.92;38.78
51359;BME280;37448;51.588;7.248;2023-07-02T08:45:17;100338.56;;;23.28;39.77
51359;BME280;37448;51.588;7.248;2023-07-02T08:47:17;100345.69;;;23.05;38.52
51359;BME280;37448;51.588;7.248;2023-07-02T08:49:18;100349.78;;;22.75;39.29
51359;BME280;37448;51.588;7.248;2023-07-02T08:51:19;100359.09;;;22.80;39.50
51359;BME280;37448;51.588;7.248;2023-07-02T08:53:19;100346.97;;;22.65;38.89
51359;BME280;37448;51.588;7.248;2023-07-02T08:55:19;100341.06;;;22.61;39.06
51359;BME280;37448;51.588;7.248;2023-07-02T08:57:20;100343.47;;;22.76;39.56
51359;BME280;37448;51.588;7.248;2023-07-02T08:59:21;100350.28;;;23.26;39.59
51359;BME280;37448;51.588;7.248;2023-07-02T09:01:21;100340.38;;;23.05;39.11
51359;BME280;37448;51.588;7.248;2023-07-02T09:03:25;100358.00;;;22.94;37.34
51359;BME280;37448;51.588;7.248;2023-07-02T09:05:25;100344.72;;;22.83;37.27
51359;BME280;37448;51.588;7.248;2023-07-02T09:07:26;100345.81;;;22.92;37.51
51359;BME280;37448;51.588;7.248;2023-07-02T09:09:26;100357.31;;;23.04;37.96
51359;BME280;37448;51.588;7.248;2023-07-02T09:11:26;100344.84;;;22.93;37.49
51359;BME280;37448;51.588;7.248;2023-07-02T09:13:27;100348.34;;;22.93;37.58
51359;BME280;37448;51.588;7.248;2023-07-02T09:15:34;100352.69;;;23.17;37.51
51359;BME280;37448;51.588;7.248;2023-07-02T09:17:36;100350.41;;;23.35;37.42
51359;BME280;37448;51.588;7.248;2023-07-02T09:19:49;100353.13;;;23.68;36.16
51359;BME280;37448;51.588;7.248;2023-07-02T09:21:49;100355.84;;;23.57;35.36
51359;BME280;37448;51.588;7.248;2023-07-02T09:23:50;100360.44;;;23.09;34.53
51359;BME280;37448;51.588;7.248;2023-07-02T09:25:50;100358.38;;;23.13;34.94
51359;BME280;37448;51.588;7.248;2023-07-02T09:27:50;100356.56;;;22.90;35.30
51359;BME280;37448;51.588;7.248;2023-07-02T09:29:51;100356.91;;;22.74;35.71
51359;BME280;37448;51.588;7.248;2023-07-02T09:31:56;100354.63;;;22.81;35.38
51359;BME280;37448;51.588;7.248;2023-07-02T09:34:03;100355.34;;;22.83;36.22
51359;BME280;37448;51.588;7.248;2023-07-02T09:36:04;100349.56;;;22.89;35.84
51359;BME280;37448;51.588;7.248;2023-07-02T09:38:05;100343.03;;;22.82;35.03
51359;BME280;37448;51.588;7.248;2023-07-02T09:40:06;100355.50;;;22.46;35.18
51359;BME280;37448;51.588;7.248;2023-07-02T09:42:09;100362.44;;;22.48;35.98
51359;BME280;37448;51.588;7.248;2023-07-02T09:44:11;100356.94;;;22.03;36.36
51359;BME280;37448;51.588;7.248;2023-07-02T09:46:13;100352.53;;;22.26;36.85
51359;BME280;37448;51.588;7.248;2023-07-02T09:48:14;100357.25;;;22.22;37.03
51359;BME280;37448;51.588;7.248;2023-07-02T09:50:18;100355.31;;;22.25;37.20
51359;BME280;37448;51.588;7.248;2023-07-02T09:52:20;100352.44;;;22.03;37.59
51359;BME280;37448;51.588;7.248;2023-07-02T09:54:22;100351.94;;;22.22;38.59
51359;BME280;37448;51.588;7.248;2023-07-02T09:56:22;100366.09;;;21.99;38.58
51359;BME280;37448;51.588;7.248;2023-07-02T09:58:23;100361.16;;;22.05;38.15
51359;BME280;37448;51.588;7.248;2023-07-02T10:00:24;100356.31;;;21.99;37.49
51359;BME280;37448;51.588;7.248;2023-07-02T10:02:24;100356.69;;;21.82;38.64
51359;BME280;37448;51.588;7.248;2023-07-02T10:04:24;100358.78;;;22.14;38.32
51359;BME280;37448;51.588;7.248;2023-07-02T10:06:25;100373.13;;;22.35;37.17
51359;BME280;37448;51.588;7.248;2023-07-02T10:08:25;100359.78;;;22.24;38.27
51359;BME280;37448;51.588;7.248;2023-07-02T10:10:31;100372.31;;;21.86;36.40
51359;BME280;37448;51.588;7.248;2023-07-02T10:12:31;100364.88;;;21.78;37.55
51359;BME280;37448;51.588;7.248;2023-07-02T10:14:45;100367.91;;;21.61;38.39
51359;BME280;37448;51.588;7.248;2023-07-02T10:16:53;100374.91;;;21.75;40.11
51359;BME280;37448;51.588;7.248;2023-07-02T10:18:54;100388.31;;;21.73;39.22
51359;BME280;37448;51.588;7.248;2023-07-02T10:20:54;100395.31;;;21.74;37.72
51359;BME280;37448;51.588;7.248;2023-07-02T10:22:55;100387.56;;;21.71;37.26
51359;BME280;37448;51.588;7.248;2023-07-02T10:24:59;100363.91;;;21.55;36.78
51359;BME280;37448;51.588;7.248;2023-07-02T10:27:03;100373.97;;;21.63;36.94
51359;BME280;37448;51.588;7.248;2023-07-02T10:29:03;100376.84;;;21.60;36.60
51359;BME280;37448;51.588;7.248;2023-07-02T10:31:03;100377.03;;;21.83;37.24
51359;BME280;37448;51.588;7.248;2023-07-02T10:33:22;100375.81;;;21.87;37.33